sensor_id;sensor_type;location;lat;lon;timestamp;P1;durP1;ratioP1;P2;durP2;ratioP2
74789;SDS011;63318;52.406;13.416;2022-12-07T00:01:09;11.10;;;4.90;;
74789;SDS011;63318;52.406;13.416;2022-12-07T00:03:39;11.70;;;5.00;;
74789;SDS011;63318;52.406;13.416;2022-12-07T00:06:11;13.50;;;5.80;;
74789;SDS011;63318;52.406;13.416;2022-12-07T00:08:41;10.10;;;5.40;;
74789;SDS011;63318;52.406;13.416;2022-12-07T00:11:10;13.10;;;5.70;;
74789;SDS011;63318;52.406;13.416;2022-12-07T00:13:39;11.70;;;5.60;;
74789;SDS011;63318;52.406;13.416;2022-12-07T00:16:08;10.40;;;5.10;;
74789;SDS011;63318;52.406;13.416;2022-12-07T00:18:38;11.80;;;5.10;;
74789;SDS011;63318;52.406;13.416;2022-12-07T00:21:09;12.20;;;5.20;;
74789;SDS011;63318;52.406;13.416;2022-12-07T00:23:39;11.10;;;5.10;;
74789;SDS011;63318;52.406;13.416;2022-12-07T00:26:09;10.20;;;4.90;;
74789;SDS011;63318;52.406;13.416;2022-12-07T00:28:39;9.70;;;4.60;;
74789;SDS011;63318;52.406;13.416;2022-12-07T00:31:08;11.40;;;5.50;;
74789;SDS011;63318;52.406;13.416;2022-12-07T00:33:37;11.20;;;5.10;;
74789;SDS011;63318;52.406;13.416;2022-12-07T00:36:11;9.60;;;4.90;;
74789;SDS011;63318;52.406;13.416;2022-12-07T00:38:40;9.80;;;5.10;;
74789;SDS011;63318;52.406;13.416;2022-12-07T00:41:09;8.80;;;4.20;;
74789;SDS011;63318;52.406;13.416;2022-12-07T00:43:39;10.40;;;4.80;;
74789;SDS011;63318;52.406;13.416;2022-12-07T00:46:09;9.40;;;4.40;;
74789;SDS011;63318;52.406;13.416;2022-12-07T00:48:38;8.00;;;3.90;;
74789;SDS011;63318;52.406;13.416;2022-12-07T00:51:07;7.60;;;3.80;;
74789;SDS011;63318;52.406;13.416;2022-12-07T00:53:37;9.00;;;4.10;;
74789;SDS011;63318;52.406;13.416;2022-12-07T00:56:06;8.00;;;3.80;;
74789;SDS011;63318;52.406;13.416;2022-12-07T00:58:36;8.10;;;3.30;;
74789;SDS011;63318;52.406;13.416;2022-12-07T01:01:05;7.30;;;3.90;;
74789;SDS011;63318;52.406;13.416;2022-12-07T01:03:34;8.00;;;4.20;;
74789;SDS011;63318;52.406;13.416;2022-12-07T01:06:03;5.80;;;2.80;;
74789;SDS011;63318;52.406;13.416;2022-12-07T01:08:32;7.00;;;3.80;;
74789;SDS011;63318;52.406;13.416;2022-12-07T01:11:02;8.70;;;4.10;;
74789;SDS011;63318;52.406;13.416;2022-12-07T01:13:33;6.50;;;3.30;;
74789;SDS011;63318;52.406;13.416;2022-12-07T01:16:03;7.30;;;3.90;;
74789;SDS011;63318;52.406;13.416;2022-12-07T01:18:34;9.40;;;3.50;;
74789;SDS011;63318;52.406;13.416;2022-12-07T01:21:04;7.80;;;3.50;;
74789;SDS011;63318;52.406;13.416;2022-12-07T01:23:34;7.10;;;3.30;;
74789;SDS011;63318;52.406;13.416;2022-12-07T01:26:04;6.70;;;3.20;;
74789;SDS011;63318;52.406;13.416;2022-12-07T01:28:34;6.80;;;3.60;;
74789;SDS011;63318;52.406;13.416;2022-12-07T01:31:03;6.00;;;3.10;;
74789;SDS011;63318;52.406;13.416;2022-12-07T01:33:35;6.00;;;2.80;;
74789;SDS011;63318;52.406;13.416;2022-12-07T01:36:04;8.50;;;3.70;;
74789;SDS011;63318;52.406;13.416;2022-12-07T01:38:34;8.50;;;3.50;;
74789;SDS011;63318;52.406;13.416;2022-12-07T01:41:02;8.90;;;4.30;;
74789;SDS011;63318;52.406;13.416;2022-12-07T01:43:32;8.00;;;3.70;;
74789;SDS011;63318;52.406;13.416;2022-12-07T01:46:01;7.80;;;3.70;;
74789;SDS011;63318;52.406;13.416;2022-12-07T01:48:30;7.80;;;3.70;;
74789;SDS011;63318;52.406;13.416;2022-12-07T01:51:03;8.10;;;3.90;;
74789;SDS011;63318;52.406;13.416;2022-12-07T01:53:39;9.50;;;3.70;;
74789;SDS011;63318;52.406;13.416;2022-12-07T01:56:11;6.50;;;3.20;;
74789;SDS011;63318;52.406;13.416;2022-12-07T01:58:46;7.60;;;3.50;;
74789;SDS011;63318;52.406;13.416;2022-12-07T02:01:15;6.80;;;3.40;;
74789;SDS011;63318;52.406;13.416;2022-12-07T02:03:43;7.10;;;3.30;;
74789;SDS011;63318;52.406;13.416;2022-12-07T02:06:14;6.30;;;2.90;;
74789;SDS011;63318;52.406;13.416;2022-12-07T02:08:47;7.70;;;3.20;;
74789;SDS011;63318;52.406;13.416;2022-12-07T02:11:15;7.40;;;3.50;;
74789;SDS011;63318;52.406;13.416;2022-12-07T02:13:44;7.40;;;3.60;;
74789;SDS011;63318;52.406;13.416;2022-12-07T02:16:16;9.20;;;4.00;;
74789;SDS011;63318;52.406;13.416;2022-12-07T02:18:55;7.50;;;3.30;;
74789;SDS011;63318;52.406;13.416;2022-12-07T02:21:40;7.40;;;3.60;;
74789;SDS011;63318;52.406;13.416;2022-12-07T02:24:19;7.40;;;3.50;;
74789;SDS011;63318;52.406;13.416;2022-12-07T02:27:07;6.50;;;2.90;;
74789;SDS011;63318;52.406;13.416;2022-12-07T02:29:49;6.50;;;2.90;;
74789;SDS011;63318;52.406;13.416;2022-12-07T02:32:27;7.30;;;3.50;;
74789;SDS011;63318;52.406;13.416;2022-12-07T02:35:07;6.70;;;3.10;;
74789;SDS011;63318;52.406;13.416;2022-12-07T02:37:39;7.30;;;3.10;;
74789;SDS011;63318;52.406;13.416;2022-12-07T02:40:16;5.80;;;2.90;;
74789;SDS011;63318;52.406;13.416;2022-12-07T02:42:50;10.00;;;3.70;;
74789;SDS011;63318;52.406;13.416;2022-12-07T02:47:50;9.30;;;3.20;;
74789;SDS011;63318;52.406;13.416;2022-12-07T02:50:22;7.70;;;3.30;;
74789;SDS011;63318;52.406;13.416;2022-12-07T02:52:51;6.10;;;3.60;;
74789;SDS011;63318;52.406;13.416;2022-12-07T02:55:19;6.80;;;3.20;;
74789;SDS011;63318;52.406;13.416;2022-12-07T02:57:57;6.00;;;2.50;;
74789;SDS011;63318;52.406;13.416;2022-12-07T03:00:34;5.60;;;2.90;;
74789;SDS011;63318;52.406;13.416;2022-12-07T03:03:11;5.30;;;2.70;;
74789;SDS011;63318;52.406;13.416;2022-12-07T03:05:52;6.30;;;2.90;;
74789;SDS011;63318;52.406;13.416;2022-12-07T03:08:33;4.80;;;2.60;;
74789;SDS011;63318;52.406;13.416;2022-12-07T03:11:12;4.80;;;2.40;;
74789;SDS011;63318;52.406;13.416;2022-12-07T03:16:15;6.70;;;2.50;;
74789;SDS011;63318;52.406;13.416;2022-12-07T03:18:47;7.60;;;3.20;;
74789;SDS011;63318;52.406;13.416;2022-12-07T03:21:20;6.20;;;3.00;;
74789;SDS011;63318;52.406;13.416;2022-12-07T03:23:52;5.60;;;2.90;;
74789;SDS011;63318;52.406;13.416;2022-12-07T03:26:23;7.10;;;3.10;;
74789;SDS011;63318;52.406;13.416;2022-12-07T03:28:58;8.50;;;3.50;;
74789;SDS011;63318;52.406;13.416;2022-12-07T03:31:31;6.90;;;2.80;;
74789;SDS011;63318;52.406;13.416;2022-12-07T03:34:04;11.30;;;4.60;;
74789;SDS011;63318;52.406;13.416;2022-12-07T03:36:37;11.00;;;4.70;;
74789;SDS011;63318;52.406;13.416;2022-12-07T03:39:16;10.30;;;4.20;;
74789;SDS011;63318;52.406;13.416;2022-12-07T03:41:48;8.90;;;3.90;;
74789;SDS011;63318;52.406;13.416;2022-12-07T03:44:18;8.30;;;3.70;;
74789;SDS011;63318;52.406;13.416;2022-12-07T03:46:50;9.50;;;4.60;;
74789;SDS011;63318;52.406;13.416;2022-12-07T03:49:25;6.70;;;3.50;;
74789;SDS011;63318;52.406;13.416;2022-12-07T03:52:00;10.70;;;3.80;;
74789;SDS011;63318;52.406;13.416;2022-12-07T03:54:36;8.20;;;3.40;;
74789;SDS011;63318;52.406;13.416;2022-12-07T03:57:08;7.40;;;3.70;;
74789;SDS011;63318;52.406;13.416;2022-12-07T03:59:39;9.60;;;4.20;;
74789;SDS011;63318;52.406;13.416;2022-12-07T04:02:09;8.00;;;3.80;;
74789;SDS011;63318;52.406;13.416;2022-12-07T04:04:40;7.60;;;3.40;;
74789;SDS011;63318;52.406;13.416;2022-12-07T04:07:09;11.30;;;4.20;;
74789;SDS011;63318;52.406;13.416;2022-12-07T04:09:38;9.40;;;4.70;;
74789;SDS011;63318;52.406;13.416;2022-12-07T04:12:06;9.80;;;4.60;;
74789;SDS011;63318;52.406;13.416;2022-12-07T04:14:35;10.40;;;3.90;;
74789;SDS011;63318;52.406;13.416;2022-12-07T04:17:03;11.10;;;5.40;;
74789;SDS011;63318;52.406;13.416;2022-12-07T04:19:32;9.70;;;4.70;;
74789;SDS011;63318;52.406;13.416;2022-12-07T04:22:01;14.30;;;5.30;;
74789;SDS011;63318;52.406;13.416;2022-12-07T04:24:31;11.70;;;5.30;;
74789;SDS011;63318;52.406;13.416;2022-12-07T04:27:00;8.80;;;4.40;;
74789;SDS011;63318;52.406;13.416;2022-12-07T04:29:29;14.00;;;5.00;;
74789;SDS011;63318;52.406;13.416;2022-12-07T04:31:57;15.20;;;6.10;;
74789;SDS011;63318;52.406;13.416;2022-12-07T04:34:25;15.50;;;7.30;;
74789;SDS011;63318;52.406;13.416;2022-12-07T04:36:53;16.90;;;6.80;;
74789;SDS011;63318;52.406;13.416;2022-12-07T04:39:23;15.80;;;6.90;;
74789;SDS011;63318;52.406;13.416;2022-12-07T04:41:53;14.10;;;6.30;;
74789;SDS011;63318;52.406;13.416;2022-12-07T04:44:22;17.50;;;7.50;;
74789;SDS011;63318;52.406;13.416;2022-12-07T04:46:51;16.80;;;7.30;;
74789;SDS011;63318;52.406;13.416;2022-12-07T04:49:20;16.60;;;7.40;;
74789;SDS011;63318;52.406;13.416;2022-12-07T04:51:49;15.20;;;6.90;;
74789;SDS011;63318;52.406;13.416;2022-12-07T04:54:19;16.40;;;8.40;;
74789;SDS011;63318;52.406;13.416;2022-12-07T04:56:47;12.70;;;5.70;;
74789;SDS011;63318;52.406;13.416;2022-12-07T04:59:16;15.70;;;6.80;;
74789;SDS011;63318;52.406;13.416;2022-12-07T05:01:44;14.30;;;6.60;;
74789;SDS011;63318;52.406;13.416;2022-12-07T05:04:13;14.10;;;6.90;;
74789;SDS011;63318;52.406;13.416;2022-12-07T05:06:41;13.20;;;5.70;;
74789;SDS011;63318;52.406;13.416;2022-12-07T05:09:09;14.70;;;6.20;;
74789;SDS011;63318;52.406;13.416;2022-12-07T05:11:38;17.60;;;7.80;;
74789;SDS011;63318;52.406;13.416;2022-12-07T05:14:06;16.70;;;7.90;;
74789;SDS011;63318;52.406;13.416;2022-12-07T05:16:37;15.30;;;6.80;;
74789;SDS011;63318;52.406;13.416;2022-12-07T05:19:06;13.10;;;5.80;;
74789;SDS011;63318;52.406;13.416;2022-12-07T05:21:34;14.40;;;6.50;;
74789;SDS011;63318;52.406;13.416;2022-12-07T05:24:03;22.60;;;8.60;;
74789;SDS011;63318;52.406;13.416;2022-12-07T05:26:32;20.50;;;8.50;;
74789;SDS011;63318;52.406;13.416;2022-12-07T05:29:01;21.40;;;9.00;;
74789;SDS011;63318;52.406;13.416;2022-12-07T05:31:29;16.80;;;7.70;;
74789;SDS011;63318;52.406;13.416;2022-12-07T05:33:58;17.90;;;7.60;;
74789;SDS011;63318;52.406;13.416;2022-12-07T05:36:27;18.00;;;7.90;;
74789;SDS011;63318;52.406;13.416;2022-12-07T05:38:55;17.60;;;7.90;;
74789;SDS011;63318;52.406;13.416;2022-12-07T05:41:24;17.80;;;7.80;;
74789;SDS011;63318;52.406;13.416;2022-12-07T05:43:52;16.40;;;7.30;;
74789;SDS011;63318;52.406;13.416;2022-12-07T05:46:20;15.00;;;7.20;;
74789;SDS011;63318;52.406;13.416;2022-12-07T05:48:49;19.40;;;8.70;;
74789;SDS011;63318;52.406;13.416;2022-12-07T05:51:18;18.10;;;7.80;;
74789;SDS011;63318;52.406;13.416;2022-12-07T05:53:46;16.60;;;7.90;;
74789;SDS011;63318;52.406;13.416;2022-12-07T05:56:14;16.50;;;7.40;;
74789;SDS011;63318;52.406;13.416;2022-12-07T05:58:43;15.00;;;6.80;;
74789;SDS011;63318;52.406;13.416;2022-12-07T06:01:11;17.00;;;7.00;;
74789;SDS011;63318;52.406;13.416;2022-12-07T06:03:39;19.40;;;8.90;;
74789;SDS011;63318;52.406;13.416;2022-12-07T06:06:07;18.00;;;7.80;;
74789;SDS011;63318;52.406;13.416;2022-12-07T06:08:35;21.60;;;8.10;;
74789;SDS011;63318;52.406;13.416;2022-12-07T06:11:04;20.30;;;8.00;;
74789;SDS011;63318;52.406;13.416;2022-12-07T06:13:32;22.10;;;8.80;;
74789;SDS011;63318;52.406;13.416;2022-12-07T06:16:00;21.10;;;9.00;;
74789;SDS011;63318;52.406;13.416;2022-12-07T06:18:28;30.30;;;11.10;;
74789;SDS011;63318;52.406;13.416;2022-12-07T06:20:57;20.70;;;8.00;;
74789;SDS011;63318;52.406;13.416;2022-12-07T06:23:25;21.30;;;8.30;;
74789;SDS011;63318;52.406;13.416;2022-12-07T06:25:53;19.70;;;8.20;;
74789;SDS011;63318;52.406;13.416;2022-12-07T06:28:22;21.50;;;9.10;;
74789;SDS011;63318;52.406;13.416;2022-12-07T06:30:57;23.20;;;9.10;;
74789;SDS011;63318;52.406;13.416;2022-12-07T06:33:26;19.00;;;9.30;;
74789;SDS011;63318;52.406;13.416;2022-12-07T06:35:55;17.60;;;8.30;;
74789;SDS011;63318;52.406;13.416;2022-12-07T06:38:24;20.40;;;9.00;;
74789;SDS011;63318;52.406;13.416;2022-12-07T06:40:53;19.60;;;8.80;;
74789;SDS011;63318;52.406;13.416;2022-12-07T06:43:21;18.80;;;8.70;;
74789;SDS011;63318;52.406;13.416;2022-12-07T06:45:49;20.50;;;9.50;;
74789;SDS011;63318;52.406;13.416;2022-12-07T06:48:17;16.50;;;8.00;;
74789;SDS011;63318;52.406;13.416;2022-12-07T06:50:46;18.70;;;7.50;;
74789;SDS011;63318;52.406;13.416;2022-12-07T06:53:14;19.90;;;9.50;;
74789;SDS011;63318;52.406;13.416;2022-12-07T06:55:42;19.30;;;8.10;;
74789;SDS011;63318;52.406;13.416;2022-12-07T06:58:10;17.30;;;7.60;;
74789;SDS011;63318;52.406;13.416;2022-12-07T07:00:39;19.00;;;9.00;;
74789;SDS011;63318;52.406;13.416;2022-12-07T07:03:07;21.20;;;10.30;;
74789;SDS011;63318;52.406;13.416;2022-12-07T07:05:36;28.90;;;10.30;;
74789;SDS011;63318;52.406;13.416;2022-12-07T07:08:04;25.50;;;11.60;;
74789;SDS011;63318;52.406;13.416;2022-12-07T07:10:32;25.90;;;10.80;;
74789;SDS011;63318;52.406;13.416;2022-12-07T07:13:00;23.00;;;9.90;;
74789;SDS011;63318;52.406;13.416;2022-12-07T07:15:29;24.20;;;9.80;;
74789;SDS011;63318;52.406;13.416;2022-12-07T07:17:58;22.10;;;10.10;;
74789;SDS011;63318;52.406;13.416;2022-12-07T07:20:27;21.20;;;9.40;;
74789;SDS011;63318;52.406;13.416;2022-12-07T07:22:55;21.10;;;8.80;;
74789;SDS011;63318;52.406;13.416;2022-12-07T07:25:23;17.90;;;9.20;;
74789;SDS011;63318;52.406;13.416;2022-12-07T07:27:52;22.60;;;10.20;;
74789;SDS011;63318;52.406;13.416;2022-12-07T07:30:20;19.90;;;9.00;;
74789;SDS011;63318;52.406;13.416;2022-12-07T07:32:49;17.50;;;8.10;;
74789;SDS011;63318;52.406;13.416;2022-12-07T07:35:17;17.90;;;7.40;;
74789;SDS011;63318;52.406;13.416;2022-12-07T07:37:45;19.00;;;8.70;;
74789;SDS011;63318;52.406;13.416;2022-12-07T07:40:14;19.00;;;9.40;;
74789;SDS011;63318;52.406;13.416;2022-12-07T07:42:42;17.70;;;8.60;;
74789;SDS011;63318;52.406;13.416;2022-12-07T07:45:13;19.80;;;7.80;;
74789;SDS011;63318;52.406;13.416;2022-12-07T07:47:41;18.40;;;8.30;;
74789;SDS011;63318;52.406;13.416;2022-12-07T07:50:10;17.60;;;8.40;;
74789;SDS011;63318;52.406;13.416;2022-12-07T07:52:38;15.80;;;7.70;;
74789;SDS011;63318;52.406;13.416;2022-12-07T07:55:07;20.00;;;9.20;;
74789;SDS011;63318;52.406;13.416;2022-12-07T07:57:35;24.30;;;11.20;;
74789;SDS011;63318;52.406;13.416;2022-12-07T08:00:06;18.80;;;9.10;;
74789;SDS011;63318;52.406;13.416;2022-12-07T08:05:04;12.70;;;5.90;;
74789;SDS011;63318;52.406;13.416;2022-12-07T08:07:33;14.90;;;7.20;;
74789;SDS011;63318;52.406;13.416;2022-12-07T08:10:02;13.30;;;6.20;;
74789;SDS011;63318;52.406;13.416;2022-12-07T08:12:31;13.90;;;6.20;;
74789;SDS011;63318;52.406;13.416;2022-12-07T08:15:04;16.20;;;7.40;;
74789;SDS011;63318;52.406;13.416;2022-12-07T08:17:34;16.20;;;7.60;;
74789;SDS011;63318;52.406;13.416;2022-12-07T08:20:02;14.60;;;6.90;;
74789;SDS011;63318;52.406;13.416;2022-12-07T08:22:32;12.60;;;6.60;;
74789;SDS011;63318;52.406;13.416;2022-12-07T08:25:00;12.70;;;5.40;;
74789;SDS011;63318;52.406;13.416;2022-12-07T08:27:28;14.70;;;6.30;;
74789;SDS011;63318;52.406;13.416;2022-12-07T08:29:57;11.20;;;5.70;;
74789;SDS011;63318;52.406;13.416;2022-12-07T08:32:26;11.40;;;6.10;;
74789;SDS011;63318;52.406;13.416;2022-12-07T08:34:54;13.50;;;5.80;;
74789;SDS011;63318;52.406;13.416;2022-12-07T08:37:22;11.60;;;5.50;;
74789;SDS011;63318;52.406;13.416;2022-12-07T08:39:50;11.80;;;5.00;;
74789;SDS011;63318;52.406;13.416;2022-12-07T08:42:18;9.10;;;5.00;;
74789;SDS011;63318;52.406;13.416;2022-12-07T08:44:47;11.40;;;5.00;;
74789;SDS011;63318;52.406;13.416;2022-12-07T08:47:16;8.90;;;4.20;;
74789;SDS011;63318;52.406;13.416;2022-12-07T08:49:44;7.40;;;3.90;;
74789;SDS011;63318;52.406;13.416;2022-12-07T08:52:16;8.80;;;4.40;;
74789;SDS011;63318;52.406;13.416;2022-12-07T08:54:45;7.50;;;3.30;;
74789;SDS011;63318;52.406;13.416;2022-12-07T08:57:13;7.60;;;3.40;;
74789;SDS011;63318;52.406;13.416;2022-12-07T08:59:42;8.20;;;3.40;;
74789;SDS011;63318;52.406;13.416;2022-12-07T09:02:10;7.20;;;2.90;;
74789;SDS011;63318;52.406;13.416;2022-12-07T09:04:38;6.50;;;2.20;;
74789;SDS011;63318;52.406;13.416;2022-12-07T09:07:06;6.00;;;2.40;;
74789;SDS011;63318;52.406;13.416;2022-12-07T09:09:35;6.00;;;2.10;;
74789;SDS011;63318;52.406;13.416;2022-12-07T09:12:03;5.30;;;2.20;;
74789;SDS011;63318;52.406;13.416;2022-12-07T09:14:32;4.40;;;2.00;;
74789;SDS011;63318;52.406;13.416;2022-12-07T09:17:05;4.10;;;2.10;;
74789;SDS011;63318;52.406;13.416;2022-12-07T09:19:35;4.90;;;2.10;;
74789;SDS011;63318;52.406;13.416;2022-12-07T09:22:04;3.40;;;1.40;;
74789;SDS011;63318;52.406;13.416;2022-12-07T09:24:32;5.70;;;2.30;;
74789;SDS011;63318;52.406;13.416;2022-12-07T09:27:00;4.70;;;1.80;;
74789;SDS011;63318;52.406;13.416;2022-12-07T09:29:29;4.20;;;1.90;;
74789;SDS011;63318;52.406;13.416;2022-12-07T09:31:57;4.20;;;1.70;;
74789;SDS011;63318;52.406;13.416;2022-12-07T09:34:25;3.90;;;1.50;;
74789;SDS011;63318;52.406;13.416;2022-12-07T09:36:56;3.20;;;1.40;;
74789;SDS011;63318;52.406;13.416;2022-12-07T09:39:26;3.00;;;1.40;;
74789;SDS011;63318;52.406;13.416;2022-12-07T09:41:56;2.70;;;1.30;;
74789;SDS011;63318;52.406;13.416;2022-12-07T09:44:26;2.70;;;1.00;;
74789;SDS011;63318;52.406;13.416;2022-12-07T09:47:02;3.60;;;1.20;;
74789;SDS011;63318;52.406;13.416;2022-12-07T09:49:38;2.70;;;1.10;;
74789;SDS011;63318;52.406;13.416;2022-12-07T09:54:57;3.30;;;1.50;;
74789;SDS011;63318;52.406;13.416;2022-12-07T09:57:33;2.80;;;1.10;;
74789;SDS011;63318;52.406;13.416;2022-12-07T10:00:03;4.50;;;1.50;;
74789;SDS011;63318;52.406;13.416;2022-12-07T10:02:38;5.60;;;1.70;;
74789;SDS011;63318;52.406;13.416;2022-12-07T10:05:10;5.60;;;1.70;;
74789;SDS011;63318;52.406;13.416;2022-12-07T10:07:43;3.80;;;1.50;;
74789;SDS011;63318;52.406;13.416;2022-12-07T10:10:15;4.10;;;1.90;;
74789;SDS011;63318;52.406;13.416;2022-12-07T10:12:56;4.30;;;1.70;;
74789;SDS011;63318;52.406;13.416;2022-12-07T10:15:43;4.90;;;1.40;;
74789;SDS011;63318;52.406;13.416;2022-12-07T10:18:35;4.00;;;1.30;;
74789;SDS011;63318;52.406;13.416;2022-12-07T10:21:15;3.40;;;1.30;;
74789;SDS011;63318;52.406;13.416;2022-12-07T10:26:33;2.70;;;1.10;;
74789;SDS011;63318;52.406;13.416;2022-12-07T10:29:12;2.40;;;1.00;;
74789;SDS011;63318;52.406;13.416;2022-12-07T10:31:52;3.50;;;1.00;;
74789;SDS011;63318;52.406;13.416;2022-12-07T10:34:24;3.10;;;1.30;;
74789;SDS011;63318;52.406;13.416;2022-12-07T10:36:53;4.30;;;1.30;;
74789;SDS011;63318;52.406;13.416;2022-12-07T10:39:44;2.50;;;0.90;;
74789;SDS011;63318;52.406;13.416;2022-12-07T10:42:21;3.90;;;1.30;;
74789;SDS011;63318;52.406;13.416;2022-12-07T10:45:06;4.90;;;1.50;;
74789;SDS011;63318;52.406;13.416;2022-12-07T10:47:44;3.10;;;1.20;;
74789;SDS011;63318;52.406;13.416;2022-12-07T10:53:26;4.30;;;1.60;;
74789;SDS011;63318;52.406;13.416;2022-12-07T10:59:11;4.60;;;1.70;;
74789;SDS011;63318;52.406;13.416;2022-12-07T11:01:57;4.80;;;1.90;;
74789;SDS011;63318;52.406;13.416;2022-12-07T11:04:43;5.00;;;1.70;;
74789;SDS011;63318;52.406;13.416;2022-12-07T11:07:33;4.00;;;1.80;;
74789;SDS011;63318;52.406;13.416;2022-12-07T11:10:19;4.10;;;1.70;;
74789;SDS011;63318;52.406;13.416;2022-12-07T11:13:09;4.60;;;2.20;;
74789;SDS011;63318;52.406;13.416;2022-12-07T11:19:06;4.90;;;1.80;;
74789;SDS011;63318;52.406;13.416;2022-12-07T11:21:48;4.70;;;2.10;;
74789;SDS011;63318;52.406;13.416;2022-12-07T11:24:24;5.70;;;2.30;;
74789;SDS011;63318;52.406;13.416;2022-12-07T11:27:02;6.90;;;2.70;;
74789;SDS011;63318;52.406;13.416;2022-12-07T11:29:49;3.90;;;1.60;;
74789;SDS011;63318;52.406;13.416;2022-12-07T11:32:32;4.80;;;1.90;;
74789;SDS011;63318;52.406;13.416;2022-12-07T11:35:33;5.10;;;1.80;;
74789;SDS011;63318;52.406;13.416;2022-12-07T11:38:10;3.70;;;1.80;;
74789;SDS011;63318;52.406;13.416;2022-12-07T11:40:41;6.00;;;2.20;;
74789;SDS011;63318;52.406;13.416;2022-12-07T11:43:15;7.00;;;2.60;;
74789;SDS011;63318;52.406;13.416;2022-12-07T11:45:52;8.30;;;2.70;;
74789;SDS011;63318;52.406;13.416;2022-12-07T11:50:59;4.30;;;1.80;;
74789;SDS011;63318;52.406;13.416;2022-12-07T11:53:30;5.80;;;1.90;;
74789;SDS011;63318;52.406;13.416;2022-12-07T11:56:05;6.00;;;1.80;;
74789;SDS011;63318;52.406;13.416;2022-12-07T11:58:44;4.70;;;2.00;;
74789;SDS011;63318;52.406;13.416;2022-12-07T12:01:25;3.70;;;1.80;;
74789;SDS011;63318;52.406;13.416;2022-12-07T12:04:04;4.50;;;1.50;;
74789;SDS011;63318;52.406;13.416;2022-12-07T12:06:44;5.40;;;1.70;;
74789;SDS011;63318;52.406;13.416;2022-12-07T12:09:14;5.60;;;1.70;;
74789;SDS011;63318;52.406;13.416;2022-12-07T12:11:52;3.80;;;1.40;;
74789;SDS011;63318;52.406;13.416;2022-12-07T12:14:37;5.50;;;1.60;;
74789;SDS011;63318;52.406;13.416;2022-12-07T12:17:21;3.70;;;1.70;;
74789;SDS011;63318;52.406;13.416;2022-12-07T12:20:19;5.60;;;1.90;;
74789;SDS011;63318;52.406;13.416;2022-12-07T12:22:52;3.70;;;1.50;;
74789;SDS011;63318;52.406;13.416;2022-12-07T12:25:24;4.30;;;1.70;;
74789;SDS011;63318;52.406;13.416;2022-12-07T12:27:55;4.80;;;1.30;;
74789;SDS011;63318;52.406;13.416;2022-12-07T12:30:34;8.30;;;1.60;;
74789;SDS011;63318;52.406;13.416;2022-12-07T12:33:13;8.60;;;2.00;;
74789;SDS011;63318;52.406;13.416;2022-12-07T12:35:46;6.10;;;1.60;;
74789;SDS011;63318;52.406;13.416;2022-12-07T12:39:10;5.60;;;2.00;;
74789;SDS011;63318;52.406;13.416;2022-12-07T12:44:43;4.00;;;1.50;;
74789;SDS011;63318;52.406;13.416;2022-12-07T12:51:00;5.00;;;1.40;;
74789;SDS011;63318;52.406;13.416;2022-12-07T12:54:04;4.70;;;1.80;;
74789;SDS011;63318;52.406;13.416;2022-12-07T12:56:40;5.70;;;1.70;;
74789;SDS011;63318;52.406;13.416;2022-12-07T12:59:25;3.90;;;1.50;;
74789;SDS011;63318;52.406;13.416;2022-12-07T13:01:56;5.90;;;1.70;;
74789;SDS011;63318;52.406;13.416;2022-12-07T13:04:52;5.30;;;1.20;;
74789;SDS011;63318;52.406;13.416;2022-12-07T13:10:22;4.40;;;1.50;;
74789;SDS011;63318;52.406;13.416;2022-12-07T13:12:57;6.60;;;2.00;;
74789;SDS011;63318;52.406;13.416;2022-12-07T13:15:34;6.80;;;1.70;;
74789;SDS011;63318;52.406;13.416;2022-12-07T13:18:04;6.30;;;1.70;;
74789;SDS011;63318;52.406;13.416;2022-12-07T13:20:55;5.60;;;1.20;;
74789;SDS011;63318;52.406;13.416;2022-12-07T13:23:31;4.80;;;1.50;;
74789;SDS011;63318;52.406;13.416;2022-12-07T13:26:08;5.10;;;1.30;;
74789;SDS011;63318;52.406;13.416;2022-12-07T13:28:45;3.50;;;1.30;;
74789;SDS011;63318;52.406;13.416;2022-12-07T13:31:22;6.70;;;1.50;;
74789;SDS011;63318;52.406;13.416;2022-12-07T13:33:57;4.10;;;1.40;;
74789;SDS011;63318;52.406;13.416;2022-12-07T13:36:26;5.70;;;1.60;;
74789;SDS011;63318;52.406;13.416;2022-12-07T13:38:57;7.00;;;1.40;;
74789;SDS011;63318;52.406;13.416;2022-12-07T13:41:27;7.60;;;1.70;;
74789;SDS011;63318;52.406;13.416;2022-12-07T13:44:00;4.30;;;1.30;;
74789;SDS011;63318;52.406;13.416;2022-12-07T13:46:43;7.40;;;1.70;;
74789;SDS011;63318;52.406;13.416;2022-12-07T13:49:20;5.40;;;1.50;;
74789;SDS011;63318;52.406;13.416;2022-12-07T13:51:50;4.60;;;1.70;;
74789;SDS011;63318;52.406;13.416;2022-12-07T13:54:20;3.90;;;1.10;;
74789;SDS011;63318;52.406;13.416;2022-12-07T13:56:49;5.80;;;2.00;;
74789;SDS011;63318;52.406;13.416;2022-12-07T13:59:19;3.50;;;1.00;;
74789;SDS011;63318;52.406;13.416;2022-12-07T14:01:50;4.50;;;1.40;;
74789;SDS011;63318;52.406;13.416;2022-12-07T14:04:29;5.20;;;1.30;;
74789;SDS011;63318;52.406;13.416;2022-12-07T14:07:00;4.20;;;2.20;;
74789;SDS011;63318;52.406;13.416;2022-12-07T14:09:52;4.70;;;1.40;;
74789;SDS011;63318;52.406;13.416;2022-12-07T14:12:22;7.80;;;1.70;;
74789;SDS011;63318;52.406;13.416;2022-12-07T14:14:51;6.60;;;1.50;;
74789;SDS011;63318;52.406;13.416;2022-12-07T14:17:22;4.10;;;1.60;;
74789;SDS011;63318;52.406;13.416;2022-12-07T14:19:52;3.50;;;1.60;;
74789;SDS011;63318;52.406;13.416;2022-12-07T14:22:32;4.10;;;1.30;;
74789;SDS011;63318;52.406;13.416;2022-12-07T14:25:13;9.40;;;1.90;;
74789;SDS011;63318;52.406;13.416;2022-12-07T14:27:49;4.60;;;2.00;;
74789;SDS011;63318;52.406;13.416;2022-12-07T14:30:20;10.00;;;2.30;;
74789;SDS011;63318;52.406;13.416;2022-12-07T14:32:50;8.00;;;1.70;;
74789;SDS011;63318;52.406;13.416;2022-12-07T14:35:20;4.60;;;1.90;;
74789;SDS011;63318;52.406;13.416;2022-12-07T14:37:49;6.80;;;1.70;;
74789;SDS011;63318;52.406;13.416;2022-12-07T14:40:18;4.70;;;1.60;;
74789;SDS011;63318;52.406;13.416;2022-12-07T14:42:50;4.20;;;1.70;;
74789;SDS011;63318;52.406;13.416;2022-12-07T14:45:21;5.40;;;1.60;;
74789;SDS011;63318;52.406;13.416;2022-12-07T14:47:53;5.60;;;1.30;;
74789;SDS011;63318;52.406;13.416;2022-12-07T14:50:21;6.40;;;1.70;;
74789;SDS011;63318;52.406;13.416;2022-12-07T14:52:49;5.60;;;1.50;;
74789;SDS011;63318;52.406;13.416;2022-12-07T14:55:23;4.70;;;1.60;;
74789;SDS011;63318;52.406;13.416;2022-12-07T14:57:55;5.00;;;1.90;;
74789;SDS011;63318;52.406;13.416;2022-12-07T15:00:25;3.80;;;1.60;;
74789;SDS011;63318;52.406;13.416;2022-12-07T15:02:55;5.90;;;2.00;;
74789;SDS011;63318;52.406;13.416;2022-12-07T15:05:24;7.60;;;2.00;;
74789;SDS011;63318;52.406;13.416;2022-12-07T15:07:53;7.80;;;2.10;;
74789;SDS011;63318;52.406;13.416;2022-12-07T15:10:23;4.20;;;1.40;;
74789;SDS011;63318;52.406;13.416;2022-12-07T15:12:52;7.90;;;1.90;;
74789;SDS011;63318;52.406;13.416;2022-12-07T15:15:21;6.20;;;1.90;;
74789;SDS011;63318;52.406;13.416;2022-12-07T15:17:50;7.00;;;1.80;;
74789;SDS011;63318;52.406;13.416;2022-12-07T15:20:18;3.60;;;1.50;;
74789;SDS011;63318;52.406;13.416;2022-12-07T15:22:46;5.30;;;1.80;;
74789;SDS011;63318;52.406;13.416;2022-12-07T15:25:15;7.60;;;1.50;;
74789;SDS011;63318;52.406;13.416;2022-12-07T15:27:43;7.70;;;1.80;;
74789;SDS011;63318;52.406;13.416;2022-12-07T15:30:12;7.60;;;1.60;;
74789;SDS011;63318;52.406;13.416;2022-12-07T15:32:40;6.80;;;1.70;;